x

Ilm2 - 5 Miles Se Of Wrightsville Beach, Nc (41038) Weather Station

3:00 - Fri 19th Dec 2014 All times are EST. -5 hours from GMT.

  • Wind
    4mph
  • Sea Temp 55°f
  • Luft Temp 48°f
  • Sea Pressure 1018.7mb
  • Ilm2 - 5 Miles Se Of Wrightsville Beach, Nc
  • Ilm2 - 5 Miles Se Of Wrightsville Beach, Nc

More Historic Weather Station data

Upgrade to MSW Pro to gain access to the past 30 days of data for over 8000 Wavebouys and Weather Stations around the globe.

Join Pro

Comparision Forecast

View Surf forecast
   
Fr 12/19 3:00 4
mph
1018.7mb 55f 48f
2:00  -  2 mph 1019mb 55f 48f
1:00 4
mph
1019.1mb 55f 48f
12:00 4 7 mph 1019.5mb 55f 48f
Do 12/18 11:00 4
mph
1020mb 55f 49f
10:00 2 4 mph 1019.3mb 55f 49f
9:00 2
mph
1019.4mb 55f 49f
8:00 4 7 mph 1019.1mb 55f 49f
7:00 2 4 mph 1019.4mb 55f 49f
6:00 7 9 mph 1018.9mb 55f 49f
5:00 7
mph
1018.7mb 55f 49f
4:00 9 11 mph 1018.5mb 55f 51f
3:00 9
mph
1019mb 55f 52f
2:00 9 13 mph 1019.2mb 55f 51f
1:00 7 9 mph 1020mb 55f 51f
12:00 11 16 mph 1020.8mb 55f 49f
11:00 16 18 mph 1021.6mb 55f 49f
10:00 16 20 mph 1021.8mb 55f 48f
9:00 16 18 mph 1021.1mb 55f 48f
8:00 20 25 mph 1021mb 55f 47f
7:00 20 25 mph 1020.4mb 55f 47f
Mi 12/17 11:00 11 16 mph 1019mb 55f 50f
10:00 11 13 mph 1019mb 55f 51f
9:00 9 13 mph 1018.7mb 55f 51f
8:00 11
mph
1018.6mb 55f 51f
7:00 11 16 mph 1018.6mb 55f 52f
6:00 11 13 mph 1018.3mb 55f 53f
5:00 13 16 mph 1017.4mb 55f 52f
4:00 11
mph
1017.2mb 56f 54f
3:00 7
mph
1017.1mb 56f 55f
2:00 4 7 mph 1017.4mb 55f 57f
1:00 4
mph
1018.1mb 55f 58f
12:00 4
mph
1019.1mb 55f 57f
11:00 7 9 mph 1019.9mb 55f 55f
10:00 13 16 mph 1020.3mb 55f 53f
9:00 13 18 mph 1019.7mb 55f 51f
8:00 13 16 mph 1019.3mb 55f 49f
7:00 16 18 mph 1018.4mb 55f 48f
6:00 13 16 mph 1017.8mb 55f 49f
5:00 13 16 mph 1016.7mb 55f 50f
4:00 11 13 mph 1016.4mb 55f 51f
3:00 9 11 mph 1016.2mb 55f 51f
2:00 11
mph
1015.7mb 55f 53f
1:00 9 11 mph 1015.3mb 55f 54f
12:00 9 11 mph 1015.4mb 55f 54f
Di 12/16 11:00 9 11 mph 1015.6mb 55f 55f
10:00 13 16 mph 1015.3mb 55f 56f
9:00 13 18 mph 1014.6mb 55f 56f
8:00 13 16 mph 1014.5mb 55f 56f
7:00 16 20 mph 1013.9mb 55f 56f
6:00 16 18 mph 1013.5mb 55f 56f
5:00 11 16 mph 1013.9mb 55f 56f
4:00 11 13 mph 1013.7mb 55f 56f
3:00 11 16 mph 1014mb 55f 57f
2:00 13 16 mph 1014.9mb 55f 57f
1:00 13 18 mph 1015.8mb 55f 56f
12:00 9 13 mph 1017.1mb 55f 55f
11:00 9 11 mph 1018.3mb 55f 55f
10:00 11 13 mph 1018.6mb 55f 55f